sensor_id;sensor_type;location;lat;lon;timestamp;pressure;altitude;pressure_sealevel;temperature;humidity
17260;BME280;8746;49.230;9.220;2022-12-13T00:00:10;99533.78;;;-5.65;95.87
17260;BME280;8746;49.230;9.220;2022-12-13T00:02:40;99523.50;;;-5.65;95.92
17260;BME280;8746;49.230;9.220;2022-12-13T00:05:06;99512.47;;;-5.59;95.25
17260;BME280;8746;49.230;9.220;2022-12-13T00:07:33;99514.81;;;-5.72;95.22
17260;BME280;8746;49.230;9.220;2022-12-13T00:09:59;99512.97;;;-5.77;95.37
17260;BME280;8746;49.230;9.220;2022-12-13T00:12:24;99512.19;;;-5.75;95.46
17260;BME280;8746;49.230;9.220;2022-12-13T00:14:50;99513.78;;;-5.80;95.79
17260;BME280;8746;49.230;9.220;2022-12-13T00:17:15;99509.25;;;-5.93;95.92
17260;BME280;8746;49.230;9.220;2022-12-13T00:19:40;99505.13;;;-5.87;96.22
17260;BME280;8746;49.230;9.220;2022-12-13T00:22:06;99504.97;;;-5.94;96.45
17260;BME280;8746;49.230;9.220;2022-12-13T00:24:31;99502.47;;;-5.91;96.13
17260;BME280;8746;49.230;9.220;2022-12-13T00:26:56;99502.56;;;-5.87;96.17
17260;BME280;8746;49.230;9.220;2022-12-13T00:29:22;99493.09;;;-5.89;95.98
17260;BME280;8746;49.230;9.220;2022-12-13T00:31:47;99492.19;;;-5.91;96.13
17260;BME280;8746;49.230;9.220;2022-12-13T00:34:13;99495.75;;;-5.85;95.48
17260;BME280;8746;49.230;9.220;2022-12-13T00:36:38;99484.31;;;-6.02;96.23
17260;BME280;8746;49.230;9.220;2022-12-13T00:39:04;99485.34;;;-5.91;95.63
17260;BME280;8746;49.230;9.220;2022-12-13T00:41:34;99475.69;;;-6.04;96.13
17260;BME280;8746;49.230;9.220;2022-12-13T00:44:00;99482.53;;;-6.05;95.62
17260;BME280;8746;49.230;9.220;2022-12-13T00:46:27;99480.13;;;-5.96;95.13
17260;BME280;8746;49.230;9.220;2022-12-13T00:48:55;99475.75;;;-6.03;95.78
17260;BME280;8746;49.230;9.220;2022-12-13T00:51:22;99481.75;;;-6.01;95.84
17260;BME280;8746;49.230;9.220;2022-12-13T00:53:48;99480.06;;;-5.97;95.58
17260;BME280;8746;49.230;9.220;2022-12-13T00:56:21;99480.69;;;-6.12;96.01
17260;BME280;8746;49.230;9.220;2022-12-13T00:58:49;99476.56;;;-6.05;95.94
17260;BME280;8746;49.230;9.220;2022-12-13T01:01:17;99471.09;;;-6.21;96.39
17260;BME280;8746;49.230;9.220;2022-12-13T01:03:43;99472.63;;;-6.31;96.73
17260;BME280;8746;49.230;9.220;2022-12-13T01:06:14;99469.94;;;-6.37;96.75
17260;BME280;8746;49.230;9.220;2022-12-13T01:08:41;99460.59;;;-6.33;97.26
17260;BME280;8746;49.230;9.220;2022-12-13T01:11:07;99464.91;;;-6.32;96.84
17260;BME280;8746;49.230;9.220;2022-12-13T01:13:33;99469.28;;;-6.26;96.54
17260;BME280;8746;49.230;9.220;2022-12-13T01:16:01;99467.75;;;-6.17;96.54
17260;BME280;8746;49.230;9.220;2022-12-13T01:18:26;99469.84;;;-5.96;95.99
17260;BME280;8746;49.230;9.220;2022-12-13T01:21:02;99473.13;;;-6.04;95.53
17260;BME280;8746;49.230;9.220;2022-12-13T01:23:28;99462.00;;;-6.05;95.58
17260;BME280;8746;49.230;9.220;2022-12-13T01:25:55;99472.22;;;-6.08;94.85
17260;BME280;8746;49.230;9.220;2022-12-13T01:28:20;99473.06;;;-6.09;94.93
17260;BME280;8746;49.230;9.220;2022-12-13T01:31:01;99479.72;;;-6.19;94.73
17260;BME280;8746;49.230;9.220;2022-12-13T01:33:27;99482.31;;;-6.17;95.40
17260;BME280;8746;49.230;9.220;2022-12-13T01:35:54;99489.19;;;-6.16;95.08
17260;BME280;8746;49.230;9.220;2022-12-13T01:38:19;99482.97;;;-6.28;95.48
17260;BME280;8746;49.230;9.220;2022-12-13T01:40:47;99478.66;;;-6.29;95.66
17260;BME280;8746;49.230;9.220;2022-12-13T01:43:14;99473.56;;;-6.27;95.67
17260;BME280;8746;49.230;9.220;2022-12-13T01:45:40;99485.47;;;-6.31;94.91
17260;BME280;8746;49.230;9.220;2022-12-13T01:48:10;99478.56;;;-6.33;95.13
17260;BME280;8746;49.230;9.220;2022-12-13T01:50:42;99475.13;;;-6.34;95.15
17260;BME280;8746;49.230;9.220;2022-12-13T01:53:13;99475.00;;;-6.40;95.21
17260;BME280;8746;49.230;9.220;2022-12-13T01:55:40;99470.72;;;-6.41;96.12
17260;BME280;8746;49.230;9.220;2022-12-13T01:58:07;99468.94;;;-6.44;96.17
17260;BME280;8746;49.230;9.220;2022-12-13T02:00:34;99462.88;;;-6.47;96.03
17260;BME280;8746;49.230;9.220;2022-12-13T02:03:00;99462.94;;;-6.44;95.89
17260;BME280;8746;49.230;9.220;2022-12-13T02:05:30;99456.84;;;-6.49;95.47
17260;BME280;8746;49.230;9.220;2022-12-13T02:07:59;99456.09;;;-6.44;95.68
17260;BME280;8746;49.230;9.220;2022-12-13T02:10:26;99459.66;;;-6.37;95.33
17260;BME280;8746;49.230;9.220;2022-12-13T02:12:53;99460.47;;;-6.39;95.39
17260;BME280;8746;49.230;9.220;2022-12-13T02:15:19;99459.31;;;-6.54;95.26
17260;BME280;8746;49.230;9.220;2022-12-13T02:23:50;99452.22;;;-6.66;95.42
17260;BME280;8746;49.230;9.220;2022-12-13T02:32:31;99447.97;;;-6.65;95.25
17260;BME280;8746;49.230;9.220;2022-12-13T02:35:06;99447.53;;;-6.85;96.06
17260;BME280;8746;49.230;9.220;2022-12-13T02:37:44;99444.97;;;-6.85;95.55
17260;BME280;8746;49.230;9.220;2022-12-13T02:43:21;99448.34;;;-6.86;95.82
17260;BME280;8746;49.230;9.220;2022-12-13T02:45:53;99445.03;;;-6.82;95.37
17260;BME280;8746;49.230;9.220;2022-12-13T02:48:28;99439.78;;;-6.88;95.80
17260;BME280;8746;49.230;9.220;2022-12-13T02:50:55;99438.03;;;-6.91;95.69
17260;BME280;8746;49.230;9.220;2022-12-13T02:53:21;99445.63;;;-6.94;95.92
17260;BME280;8746;49.230;9.220;2022-12-13T02:55:47;99440.59;;;-6.91;96.10
17260;BME280;8746;49.230;9.220;2022-12-13T02:58:15;99442.16;;;-6.96;95.49
17260;BME280;8746;49.230;9.220;2022-12-13T03:00:49;99452.47;;;-6.95;95.64
17260;BME280;8746;49.230;9.220;2022-12-13T03:14:32;99444.44;;;-7.09;96.20
17260;BME280;8746;49.230;9.220;2022-12-13T03:17:02;99445.91;;;-7.20;96.38
17260;BME280;8746;49.230;9.220;2022-12-13T03:19:30;99447.53;;;-7.23;96.45
17260;BME280;8746;49.230;9.220;2022-12-13T03:21:55;99440.00;;;-7.16;96.98
17260;BME280;8746;49.230;9.220;2022-12-13T03:24:21;99431.50;;;-7.15;96.40
17260;BME280;8746;49.230;9.220;2022-12-13T03:26:48;99437.63;;;-7.08;96.09
17260;BME280;8746;49.230;9.220;2022-12-13T03:29:14;99436.72;;;-7.12;96.20
17260;BME280;8746;49.230;9.220;2022-12-13T03:31:39;99430.50;;;-7.21;96.62
17260;BME280;8746;49.230;9.220;2022-12-13T03:34:05;99433.19;;;-7.15;96.23
17260;BME280;8746;49.230;9.220;2022-12-13T03:36:31;99429.81;;;-7.14;95.95
17260;BME280;8746;49.230;9.220;2022-12-13T03:38:56;99422.94;;;-7.15;96.30
17260;BME280;8746;49.230;9.220;2022-12-13T03:41:24;99422.91;;;-7.17;95.56
17260;BME280;8746;49.230;9.220;2022-12-13T03:44:02;99423.78;;;-7.16;95.48
17260;BME280;8746;49.230;9.220;2022-12-13T03:46:29;99419.63;;;-7.10;95.37
17260;BME280;8746;49.230;9.220;2022-12-13T03:48:54;99424.00;;;-7.07;95.34
17260;BME280;8746;49.230;9.220;2022-12-13T03:51:20;99419.78;;;-7.03;95.63
17260;BME280;8746;49.230;9.220;2022-12-13T03:53:45;99418.69;;;-7.13;94.57
17260;BME280;8746;49.230;9.220;2022-12-13T03:56:10;99419.44;;;-7.19;94.92
17260;BME280;8746;49.230;9.220;2022-12-13T03:58:36;99420.16;;;-7.25;95.02
17260;BME280;8746;49.230;9.220;2022-12-13T04:01:02;99408.16;;;-7.26;95.53
17260;BME280;8746;49.230;9.220;2022-12-13T04:03:28;99410.72;;;-7.26;95.88
17260;BME280;8746;49.230;9.220;2022-12-13T04:05:53;99411.66;;;-7.23;95.17
17260;BME280;8746;49.230;9.220;2022-12-13T04:08:18;99404.13;;;-7.16;95.90
17260;BME280;8746;49.230;9.220;2022-12-13T04:10:44;99410.97;;;-7.16;95.09
17260;BME280;8746;49.230;9.220;2022-12-13T04:13:10;99403.28;;;-7.16;94.45
17260;BME280;8746;49.230;9.220;2022-12-13T04:15:54;99405.84;;;-7.15;94.26
17260;BME280;8746;49.230;9.220;2022-12-13T04:18:20;99413.75;;;-7.07;94.37
17260;BME280;8746;49.230;9.220;2022-12-13T04:20:46;99410.97;;;-7.15;94.07
17260;BME280;8746;49.230;9.220;2022-12-13T04:23:11;99411.72;;;-7.20;93.68
17260;BME280;8746;49.230;9.220;2022-12-13T04:25:38;99415.97;;;-7.21;93.27
17260;BME280;8746;49.230;9.220;2022-12-13T04:28:04;99413.28;;;-7.26;93.86
17260;BME280;8746;49.230;9.220;2022-12-13T04:30:29;99414.09;;;-7.28;93.69
17260;BME280;8746;49.230;9.220;2022-12-13T04:32:55;99417.47;;;-7.31;93.65
17260;BME280;8746;49.230;9.220;2022-12-13T04:35:21;99414.75;;;-7.37;93.86
17260;BME280;8746;49.230;9.220;2022-12-13T04:37:46;99419.88;;;-7.37;93.59
17260;BME280;8746;49.230;9.220;2022-12-13T04:40:12;99418.91;;;-7.42;93.77
17260;BME280;8746;49.230;9.220;2022-12-13T04:42:37;99415.19;;;-7.55;93.37
17260;BME280;8746;49.230;9.220;2022-12-13T04:45:03;99413.66;;;-7.48;94.87
17260;BME280;8746;49.230;9.220;2022-12-13T04:47:28;99412.84;;;-7.46;94.68
17260;BME280;8746;49.230;9.220;2022-12-13T04:49:54;99413.81;;;-7.41;94.90
17260;BME280;8746;49.230;9.220;2022-12-13T04:52:19;99414.16;;;-7.27;94.42
17260;BME280;8746;49.230;9.220;2022-12-13T04:54:45;99401.47;;;-7.20;94.23
17260;BME280;8746;49.230;9.220;2022-12-13T04:57:10;99412.66;;;-7.17;94.04
17260;BME280;8746;49.230;9.220;2022-12-13T04:59:36;99409.78;;;-7.31;94.23
17260;BME280;8746;49.230;9.220;2022-12-13T05:02:03;99414.53;;;-7.46;94.57
17260;BME280;8746;49.230;9.220;2022-12-13T05:04:29;99406.06;;;-7.44;94.79
17260;BME280;8746;49.230;9.220;2022-12-13T05:06:54;99400.84;;;-7.48;94.74
17260;BME280;8746;49.230;9.220;2022-12-13T05:09:21;99411.19;;;-7.44;93.95
17260;BME280;8746;49.230;9.220;2022-12-13T05:11:47;99405.16;;;-7.46;94.62
17260;BME280;8746;49.230;9.220;2022-12-13T05:14:12;99405.81;;;-7.54;94.49
17260;BME280;8746;49.230;9.220;2022-12-13T05:16:37;99404.13;;;-7.52;94.94
17260;BME280;8746;49.230;9.220;2022-12-13T05:19:03;99393.81;;;-7.55;94.86
17260;BME280;8746;49.230;9.220;2022-12-13T05:21:28;99395.63;;;-7.51;94.60
17260;BME280;8746;49.230;9.220;2022-12-13T05:23:54;99401.53;;;-7.54;94.24
17260;BME280;8746;49.230;9.220;2022-12-13T05:26:19;99397.38;;;-7.50;94.77
17260;BME280;8746;49.230;9.220;2022-12-13T05:28:44;99404.06;;;-7.55;94.66
17260;BME280;8746;49.230;9.220;2022-12-13T05:31:11;99392.09;;;-7.57;93.97
17260;BME280;8746;49.230;9.220;2022-12-13T05:33:37;99388.56;;;-7.62;94.86
17260;BME280;8746;49.230;9.220;2022-12-13T05:36:03;99385.03;;;-7.67;94.57
17260;BME280;8746;49.230;9.220;2022-12-13T05:38:30;99388.69;;;-7.57;93.97
17260;BME280;8746;49.230;9.220;2022-12-13T05:40:55;99390.34;;;-7.58;94.73
17260;BME280;8746;49.230;9.220;2022-12-13T05:43:21;99388.72;;;-7.55;94.08
17260;BME280;8746;49.230;9.220;2022-12-13T05:45:48;99385.09;;;-7.64;94.68
17260;BME280;8746;49.230;9.220;2022-12-13T05:48:13;99386.16;;;-7.54;94.30
17260;BME280;8746;49.230;9.220;2022-12-13T05:50:39;99387.88;;;-7.54;94.34
17260;BME280;8746;49.230;9.220;2022-12-13T05:53:05;99383.63;;;-7.52;94.84
17260;BME280;8746;49.230;9.220;2022-12-13T05:55:31;99387.06;;;-7.53;94.77
17260;BME280;8746;49.230;9.220;2022-12-13T05:57:57;99380.34;;;-7.48;94.79
17260;BME280;8746;49.230;9.220;2022-12-13T06:00:23;99376.25;;;-7.40;94.06
17260;BME280;8746;49.230;9.220;2022-12-13T06:02:48;99368.41;;;-7.46;94.09
17260;BME280;8746;49.230;9.220;2022-12-13T06:05:14;99371.91;;;-7.43;94.96
17260;BME280;8746;49.230;9.220;2022-12-13T06:07:39;99373.53;;;-7.46;94.05
17260;BME280;8746;49.230;9.220;2022-12-13T06:10:06;99381.38;;;-7.40;94.33
17260;BME280;8746;49.230;9.220;2022-12-13T06:12:33;99388.13;;;-7.44;93.91
17260;BME280;8746;49.230;9.220;2022-12-13T06:14:58;99389.09;;;-7.38;93.81
17260;BME280;8746;49.230;9.220;2022-12-13T06:17:24;99378.38;;;-7.59;94.35
17260;BME280;8746;49.230;9.220;2022-12-13T06:19:50;99369.06;;;-7.55;93.82
17260;BME280;8746;49.230;9.220;2022-12-13T06:22:16;99371.44;;;-7.63;93.65
17260;BME280;8746;49.230;9.220;2022-12-13T06:24:41;99368.78;;;-7.67;94.89
17260;BME280;8746;49.230;9.220;2022-12-13T06:27:07;99387.50;;;-7.70;94.42
17260;BME280;8746;49.230;9.220;2022-12-13T06:29:32;99379.81;;;-7.70;94.77
17260;BME280;8746;49.230;9.220;2022-12-13T06:31:59;99385.63;;;-7.77;94.29
17260;BME280;8746;49.230;9.220;2022-12-13T06:34:25;99389.94;;;-7.75;94.63
17260;BME280;8746;49.230;9.220;2022-12-13T06:36:51;99386.44;;;-7.78;95.09
17260;BME280;8746;49.230;9.220;2022-12-13T06:39:16;99394.88;;;-7.82;94.84
17260;BME280;8746;49.230;9.220;2022-12-13T06:41:42;99401.06;;;-7.74;94.50
17260;BME280;8746;49.230;9.220;2022-12-13T06:44:08;99402.75;;;-7.75;94.02
17260;BME280;8746;49.230;9.220;2022-12-13T06:46:33;99409.69;;;-7.70;94.09
17260;BME280;8746;49.230;9.220;2022-12-13T06:48:59;99401.09;;;-7.73;93.79
17260;BME280;8746;49.230;9.220;2022-12-13T06:51:25;99416.31;;;-7.79;94.49
17260;BME280;8746;49.230;9.220;2022-12-13T06:53:51;99405.97;;;-7.82;94.83
17260;BME280;8746;49.230;9.220;2022-12-13T06:56:16;99396.94;;;-7.69;93.69
17260;BME280;8746;49.230;9.220;2022-12-13T06:58:42;99406.28;;;-7.69;93.50
17260;BME280;8746;49.230;9.220;2022-12-13T07:01:13;99404.56;;;-7.70;94.21
17260;BME280;8746;49.230;9.220;2022-12-13T07:03:39;99401.41;;;-7.60;94.00
17260;BME280;8746;49.230;9.220;2022-12-13T07:06:25;99403.56;;;-7.76;94.35
17260;BME280;8746;49.230;9.220;2022-12-13T07:08:55;99397.69;;;-7.73;94.18
17260;BME280;8746;49.230;9.220;2022-12-13T07:11:23;99409.19;;;-7.55;95.11
17260;BME280;8746;49.230;9.220;2022-12-13T07:13:50;99416.72;;;-7.63;94.20
17260;BME280;8746;49.230;9.220;2022-12-13T07:16:15;99412.81;;;-7.47;93.77
17260;BME280;8746;49.230;9.220;2022-12-13T07:18:41;99405.97;;;-7.48;93.29
17260;BME280;8746;49.230;9.220;2022-12-13T07:21:08;99412.97;;;-7.41;93.11
17260;BME280;8746;49.230;9.220;2022-12-13T07:23:35;99414.50;;;-7.48;93.48
17260;BME280;8746;49.230;9.220;2022-12-13T07:26:00;99410.94;;;-7.54;93.28
17260;BME280;8746;49.230;9.220;2022-12-13T07:28:27;99408.25;;;-7.59;93.91
17260;BME280;8746;49.230;9.220;2022-12-13T07:30:52;99413.00;;;-7.75;93.58
17260;BME280;8746;49.230;9.220;2022-12-13T07:33:17;99430.28;;;-7.66;93.69
17260;BME280;8746;49.230;9.220;2022-12-13T07:35:43;99427.00;;;-7.60;93.32
17260;BME280;8746;49.230;9.220;2022-12-13T07:38:09;99432.31;;;-7.52;92.73
17260;BME280;8746;49.230;9.220;2022-12-13T07:40:36;99436.91;;;-7.39;93.23
17260;BME280;8746;49.230;9.220;2022-12-13T07:43:02;99429.69;;;-7.55;93.02
17260;BME280;8746;49.230;9.220;2022-12-13T07:45:28;99436.09;;;-7.38;93.19
17260;BME280;8746;49.230;9.220;2022-12-13T07:47:54;99443.78;;;-7.36;92.27
17260;BME280;8746;49.230;9.220;2022-12-13T07:50:20;99434.41;;;-7.37;92.39
17260;BME280;8746;49.230;9.220;2022-12-13T07:52:49;99437.09;;;-7.31;92.95
17260;BME280;8746;49.230;9.220;2022-12-13T07:55:15;99441.03;;;-7.09;92.44
17260;BME280;8746;49.230;9.220;2022-12-13T07:57:42;99438.59;;;-7.04;92.19
17260;BME280;8746;49.230;9.220;2022-12-13T08:00:08;99439.03;;;-7.21;91.10
17260;BME280;8746;49.230;9.220;2022-12-13T08:02:33;99432.16;;;-7.23;91.91
17260;BME280;8746;49.230;9.220;2022-12-13T08:04:59;99441.75;;;-7.15;92.22
17260;BME280;8746;49.230;9.220;2022-12-13T08:07:24;99440.28;;;-7.03;92.11
17260;BME280;8746;49.230;9.220;2022-12-13T08:09:50;99438.72;;;-6.98;91.44
17260;BME280;8746;49.230;9.220;2022-12-13T08:12:15;99446.69;;;-6.86;92.18
17260;BME280;8746;49.230;9.220;2022-12-13T08:14:41;99443.59;;;-6.69;92.45
17260;BME280;8746;49.230;9.220;2022-12-13T08:17:06;99445.78;;;-6.86;91.24
17260;BME280;8746;49.230;9.220;2022-12-13T08:19:31;99448.00;;;-6.64;91.37
17260;BME280;8746;49.230;9.220;2022-12-13T08:21:57;99454.03;;;-6.62;90.49
17260;BME280;8746;49.230;9.220;2022-12-13T08:24:24;99447.63;;;-6.81;90.67
17260;BME280;8746;49.230;9.220;2022-12-13T08:26:50;99440.09;;;-6.73;90.54
17260;BME280;8746;49.230;9.220;2022-12-13T08:29:17;99441.31;;;-6.97;90.95
17260;BME280;8746;49.230;9.220;2022-12-13T08:31:42;99438.38;;;-6.74;91.44
17260;BME280;8746;49.230;9.220;2022-12-13T08:34:08;99434.94;;;-6.74;89.61
17260;BME280;8746;49.230;9.220;2022-12-13T08:36:33;99440.38;;;-6.61;89.99
17260;BME280;8746;49.230;9.220;2022-12-13T08:38:59;99443.66;;;-6.68;90.14
17260;BME280;8746;49.230;9.220;2022-12-13T08:41:27;99461.03;;;-6.54;90.17
17260;BME280;8746;49.230;9.220;2022-12-13T08:43:53;99459.66;;;-6.37;89.70
17260;BME280;8746;49.230;9.220;2022-12-13T08:46:19;99462.88;;;-6.47;89.54
17260;BME280;8746;49.230;9.220;2022-12-13T08:48:44;99462.91;;;-6.46;90.11
17260;BME280;8746;49.230;9.220;2022-12-13T08:51:13;99455.13;;;-6.49;89.73
17260;BME280;8746;49.230;9.220;2022-12-13T08:53:42;99457.53;;;-6.15;90.07
17260;BME280;8746;49.230;9.220;2022-12-13T08:56:11;99449.53;;;-6.31;89.86
17260;BME280;8746;49.230;9.220;2022-12-13T08:58:37;99450.22;;;-6.38;89.49
17260;BME280;8746;49.230;9.220;2022-12-13T09:01:06;99453.13;;;-6.22;90.12
17260;BME280;8746;49.230;9.220;2022-12-13T09:03:32;99452.06;;;-6.32;90.02
17260;BME280;8746;49.230;9.220;2022-12-13T09:06:14;99444.81;;;-6.09;89.53
17260;BME280;8746;49.230;9.220;2022-12-13T09:08:41;99447.31;;;-6.12;89.77
17260;BME280;8746;49.230;9.220;2022-12-13T09:11:07;99450.72;;;-6.13;90.55
17260;BME280;8746;49.230;9.220;2022-12-13T09:13:34;99453.63;;;-5.94;89.00
17260;BME280;8746;49.230;9.220;2022-12-13T09:16:05;99444.81;;;-6.09;89.26
17260;BME280;8746;49.230;9.220;2022-12-13T09:18:31;99442.41;;;-6.00;89.68
17260;BME280;8746;49.230;9.220;2022-12-13T09:20:56;99439.81;;;-6.01;89.69
17260;BME280;8746;49.230;9.220;2022-12-13T09:23:22;99439.78;;;-6.03;88.60
17260;BME280;8746;49.230;9.220;2022-12-13T09:25:55;99434.13;;;-5.82;89.07
17260;BME280;8746;49.230;9.220;2022-12-13T09:28:21;99427.81;;;-6.02;89.39
17260;BME280;8746;49.230;9.220;2022-12-13T09:30:47;99429.97;;;-5.75;88.20
17260;BME280;8746;49.230;9.220;2022-12-13T09:33:12;99429.28;;;-5.65;88.00
17260;BME280;8746;49.230;9.220;2022-12-13T09:35:38;99433.53;;;-5.67;88.69
17260;BME280;8746;49.230;9.220;2022-12-13T09:38:03;99428.03;;;-5.35;87.11
17260;BME280;8746;49.230;9.220;2022-12-13T09:40:30;99426.47;;;-5.25;86.95
17260;BME280;8746;49.230;9.220;2022-12-13T09:42:56;99434.66;;;-4.94;85.56
17260;BME280;8746;49.230;9.220;2022-12-13T09:45:23;99441.06;;;-4.65;84.66
17260;BME280;8746;49.230;9.220;2022-12-13T09:47:49;99433.69;;;-4.35;82.93
17260;BME280;8746;49.230;9.220;2022-12-13T09:50:20;99427.34;;;-3.88;81.78
17260;BME280;8746;49.230;9.220;2022-12-13T09:52:47;99432.63;;;-3.75;80.98
17260;BME280;8746;49.230;9.220;2022-12-13T09:55:25;99425.69;;;-3.81;81.37
17260;BME280;8746;49.230;9.220;2022-12-13T09:57:53;99423.31;;;-3.59;80.64
17260;BME280;8746;49.230;9.220;2022-12-13T10:00:22;99425.16;;;-3.46;79.72
17260;BME280;8746;49.230;9.220;2022-12-13T10:02:51;99422.47;;;-3.58;79.24
17260;BME280;8746;49.230;9.220;2022-12-13T10:05:30;99413.00;;;-3.61;79.43
17260;BME280;8746;49.230;9.220;2022-12-13T10:07:58;99417.06;;;-3.84;79.80
17260;BME280;8746;49.230;9.220;2022-12-13T10:10:25;99406.75;;;-3.86;80.19
17260;BME280;8746;49.230;9.220;2022-12-13T10:15:57;99407.41;;;-2.99;78.72
17260;BME280;8746;49.230;9.220;2022-12-13T10:18:32;99415.03;;;-3.16;77.67
17260;BME280;8746;49.230;9.220;2022-12-13T10:21:04;99397.88;;;-3.10;77.85
17260;BME280;8746;49.230;9.220;2022-12-13T10:23:32;99394.56;;;-2.84;75.93
17260;BME280;8746;49.230;9.220;2022-12-13T10:25:57;99395.31;;;-3.07;76.21
17260;BME280;8746;49.230;9.220;2022-12-13T10:28:30;99392.00;;;-2.87;76.16
17260;BME280;8746;49.230;9.220;2022-12-13T10:30:56;99385.31;;;-2.35;75.09
17260;BME280;8746;49.230;9.220;2022-12-13T10:33:26;99395.41;;;-2.97;75.90
17260;BME280;8746;49.230;9.220;2022-12-13T10:38:37;99382.03;;;-3.62;79.28
17260;BME280;8746;49.230;9.220;2022-12-13T10:41:32;99387.75;;;-3.97;78.74
17260;BME280;8746;49.230;9.220;2022-12-13T10:44:17;99388.66;;;-3.89;78.50
17260;BME280;8746;49.230;9.220;2022-12-13T10:46:49;99381.63;;;-4.07;80.46
17260;BME280;8746;49.230;9.220;2022-12-13T10:49:21;99378.19;;;-4.06;81.02
17260;BME280;8746;49.230;9.220;2022-12-13T10:51:49;99379.28;;;-3.82;79.69
17260;BME280;8746;49.230;9.220;2022-12-13T10:54:23;99375.66;;;-4.02;79.89
17260;BME280;8746;49.230;9.220;2022-12-13T10:56:50;99372.25;;;-4.00;79.49
17260;BME280;8746;49.230;9.220;2022-12-13T11:01:53;99362.94;;;-3.88;79.97
17260;BME280;8746;49.230;9.220;2022-12-13T11:04:33;99362.13;;;-3.79;79.30
17260;BME280;8746;49.230;9.220;2022-12-13T11:07:29;99365.34;;;-4.02;79.49
17260;BME280;8746;49.230;9.220;2022-12-13T11:09:56;99348.13;;;-4.09;80.61
17260;BME280;8746;49.230;9.220;2022-12-13T11:12:24;99346.72;;;-3.73;81.42
17260;BME280;8746;49.230;9.220;2022-12-13T11:14:56;99343.38;;;-3.56;80.85
17260;BME280;8746;49.230;9.220;2022-12-13T11:17:25;99340.03;;;-3.43;80.88
17260;BME280;8746;49.230;9.220;2022-12-13T11:19:59;99338.19;;;-3.67;80.96
17260;BME280;8746;49.230;9.220;2022-12-13T11:22:35;99334.81;;;-3.55;82.11
17260;BME280;8746;49.230;9.220;2022-12-13T11:25:05;99326.13;;;-3.66;81.82
17260;BME280;8746;49.230;9.220;2022-12-13T11:27:43;99326.22;;;-3.56;81.17
17260;BME280;8746;49.230;9.220;2022-12-13T11:35:52;99331.94;;;-3.94;83.04
17260;BME280;8746;49.230;9.220;2022-12-13T11:38:33;99327.44;;;-4.16;82.55
17260;BME280;8746;49.230;9.220;2022-12-13T11:41:09;99326.81;;;-3.92;83.67
17260;BME280;8746;49.230;9.220;2022-12-13T11:43:42;99325.88;;;-3.99;83.47
17260;BME280;8746;49.230;9.220;2022-12-13T11:46:37;99325.97;;;-3.88;83.23
17260;BME280;8746;49.230;9.220;2022-12-13T11:51:58;99316.41;;;-4.03;82.28
17260;BME280;8746;49.230;9.220;2022-12-13T11:57:19;99313.88;;;-3.98;82.88
17260;BME280;8746;49.230;9.220;2022-12-13T11:59:56;99302.69;;;-3.99;82.65
17260;BME280;8746;49.230;9.220;2022-12-13T12:04:55;99292.13;;;-4.28;83.52
17260;BME280;8746;49.230;9.220;2022-12-13T12:07:27;99298.06;;;-4.36;83.78
17260;BME280;8746;49.230;9.220;2022-12-13T12:10:25;99295.63;;;-4.20;84.76
17260;BME280;8746;49.230;9.220;2022-12-13T12:12:57;99299.13;;;-4.15;84.08
17260;BME280;8746;49.230;9.220;2022-12-13T12:15:30;99301.88;;;-3.96;83.84
17260;BME280;8746;49.230;9.220;2022-12-13T12:17:57;99293.22;;;-4.05;83.95
17260;BME280;8746;49.230;9.220;2022-12-13T12:20:43;99293.22;;;-4.03;84.36
17260;BME280;8746;49.230;9.220;2022-12-13T12:26:12;99295.75;;;-4.06;84.08
17260;BME280;8746;49.230;9.220;2022-12-13T12:29:00;99288.84;;;-4.10;84.42
17260;BME280;8746;49.230;9.220;2022-12-13T12:31:46;99285.44;;;-4.09;84.33
17260;BME280;8746;49.230;9.220;2022-12-13T12:34:36;99288.94;;;-3.99;84.69
17260;BME280;8746;49.230;9.220;2022-12-13T12:37:16;99297.59;;;-3.91;84.04
17260;BME280;8746;49.230;9.220;2022-12-13T12:57:03;99294.31;;;-3.68;83.62
17260;BME280;8746;49.230;9.220;2022-12-13T12:59:42;99284.09;;;-3.61;82.94
17260;BME280;8746;49.230;9.220;2022-12-13T13:02:21;99278.94;;;-3.58;83.05
17260;BME280;8746;49.230;9.220;2022-12-13T13:04:52;99271.16;;;-3.62;83.69
17260;BME280;8746;49.230;9.220;2022-12-13T13:07:28;99262.66;;;-3.52;83.76
17260;BME280;8746;49.230;9.220;2022-12-13T13:09:56;99251.44;;;-3.57;83.04
17260;BME280;8746;49.230;9.220;2022-12-13T13:12:24;99248.91;;;-3.48;83.53
17260;BME280;8746;49.230;9.220;2022-12-13T13:14:50;99246.28;;;-3.54;82.26
17260;BME280;8746;49.230;9.220;2022-12-13T13:19:44;99257.53;;;-3.47;81.04
17260;BME280;8746;49.230;9.220;2022-12-13T13:22:32;99256.72;;;-3.34;81.82
17260;BME280;8746;49.230;9.220;2022-12-13T13:27:40;99262.75;;;-3.32;79.54
17260;BME280;8746;49.230;9.220;2022-12-13T13:32:39;99261.00;;;-3.38;79.89
17260;BME280;8746;49.230;9.220;2022-12-13T13:37:49;99261.00;;;-3.34;77.74
17260;BME280;8746;49.230;9.220;2022-12-13T13:45:32;99258.47;;;-3.25;78.50
17260;BME280;8746;49.230;9.220;2022-12-13T13:53:39;99258.44;;;-3.33;77.92
17260;BME280;8746;49.230;9.220;2022-12-13T14:01:32;99264.50;;;-3.26;77.17
17260;BME280;8746;49.230;9.220;2022-12-13T14:10:34;99277.31;;;-3.43;76.51
17260;BME280;8746;49.230;9.220;2022-12-13T14:29:32;99281.50;;;-3.61;76.67
17260;BME280;8746;49.230;9.220;2022-12-13T14:31:59;99274.63;;;-3.60;77.00
17260;BME280;8746;49.230;9.220;2022-12-13T14:34:26;99262.56;;;-3.64;76.79
17260;BME280;8746;49.230;9.220;2022-12-13T14:36:57;99266.00;;;-3.65;77.53
17260;BME280;8746;49.230;9.220;2022-12-13T14:39:23;99266.00;;;-3.65;77.28
17260;BME280;8746;49.230;9.220;2022-12-13T14:41:52;99264.22;;;-3.73;77.65
17260;BME280;8746;49.230;9.220;2022-12-13T14:44:32;99275.50;;;-3.57;78.58
17260;BME280;8746;49.230;9.220;2022-12-13T14:47:06;99271.97;;;-3.74;77.40
17260;BME280;8746;49.230;9.220;2022-12-13T14:49:35;99277.13;;;-3.71;77.74
17260;BME280;8746;49.230;9.220;2022-12-13T14:52:24;99277.94;;;-3.81;78.03
17260;BME280;8746;49.230;9.220;2022-12-13T14:54:55;99269.34;;;-3.80;78.15
17260;BME280;8746;49.230;9.220;2022-12-13T14:57:25;99271.06;;;-3.78;77.91
17260;BME280;8746;49.230;9.220;2022-12-13T14:59:52;99265.94;;;-3.78;77.64
17260;BME280;8746;49.230;9.220;2022-12-13T15:02:27;99251.31;;;-3.77;78.02
17260;BME280;8746;49.230;9.220;2022-12-13T15:05:02;99254.69;;;-3.84;77.88
17260;BME280;8746;49.230;9.220;2022-12-13T15:07:32;99260.69;;;-3.89;77.63
17260;BME280;8746;49.230;9.220;2022-12-13T15:10:16;99257.22;;;-3.89;77.90
17260;BME280;8746;49.230;9.220;2022-12-13T15:12:43;99256.34;;;-3.93;78.09
17260;BME280;8746;49.230;9.220;2022-12-13T15:15:28;99261.53;;;-3.90;78.43